Cleveland, Ohio
Traffic Map
Current Weather Conditions
Cleveland, Ohio
Broken Clouds Haze
Broken Clouds
42°
Feels Like: 37°
Wind Chill: 37° Ceiling: 7500
Heat Index: 42° Visibility: 3mi
Dew Point: 38° Wind: 9mph
Humidity: 85% Direction: 40° (NE)
Pressure: 30.15in Gusts: 0mph
Raw Report DataKBKL 251353Z 04008KT 3SM BR FEW046 SCT055 BKN075 06/03 A3015 RMK AO2 SLP209 T00560033
Traffic Incident Summary
Active as of:
Severity:
Category:
InformationThere was an issue retrieving the traffic information for this location. Please try a different location or try again shortly.
Advertisements
Track Severe Weather on mobile